| time (UTC) | temp F | wind direction | speed MPH | gust MPH | rain 1hr in | rain 24hr in | rain mn in | humidity % | barometer mb |
| 20260509031803 | 58 | 0 | 0.0 | 0.0 | 0.18 | 0.22 | 0.22 | 93 | 1009.2 |
| 20260509030903 | 58 | 0 | 0.0 | 0.0 | 0.18 | 0.21 | 0.21 | 93 | 1009.1 |
| 20260509030003 | 59 | 0 | 0.0 | 0.0 | 0.17 | 0.19 | 0.19 | 93 | 1009.1 |
| 20260509025403 | 59 | 333 | 0.0 | 2.0 | 0.15 | 0.17 | 0.17 | 93 | 1009.2 |
| 20260509024524 | 59 | 316 | 0.0 | 4.0 | 0.12 | 0.14 | 0.14 | 92 | 1009.3 |
| 20260509023603 | 59 | 329 | 1.0 | 8.0 | 0.07 | 0.09 | 0.09 | 92 | 1009.5 |
| 20260509022703 | 60 | 331 | 1.0 | 8.0 | 0.04 | 0.06 | 0.06 | 91 | 1009.3 |
| 20260509021803 | 60 | 322 | 0.0 | 4.0 | 0.02 | 0.04 | 0.04 | 91 | 1009.4 |
| 20260509020903 | 60 | 333 | 0.0 | 2.0 | 0.01 | 0.03 | 0.03 | 91 | 1009.2 |
| 20260509020003 | 60 | 0 | 0.0 | 0.0 | 0.00 | 0.02 | 0.02 | 91 | 1009.1 |
| 20260509015424 | 60 | 0 | 0.0 | 0.0 | 0.00 | 0.02 | 0.02 | 91 | 1008.8 |
| 20260509014503 | 60 | 0 | 0.0 | 0.0 | 0.01 | 0.02 | 0.02 | 91 | 1008.5 |
| 20260509013603 | 60 | 0 | 0.0 | 0.0 | 0.01 | 0.02 | 0.02 | 90 | 1008.3 |
| 20260509012703 | 60 | 0 | 0.0 | 0.0 | 0.01 | 0.02 | 0.02 | 89 | 1008.3 |
| 20260509011803 | 60 | 0 | 0.0 | 0.0 | 0.02 | 0.02 | 0.02 | 88 | 1007.9 |
| 20260509010903 | 61 | 0 | 0.0 | 0.0 | 0.02 | 0.02 | 0.02 | 88 | 1007.7 |
| 20260509010004 | 61 | 322 | 0.0 | 1.0 | 0.02 | 0.02 | 0.02 | 87 | 1007.9 |
| 20260509005403 | 61 | 326 | 0.0 | 6.0 | 0.02 | 0.02 | 0.02 | 86 | 1008.1 |
| 20260509004503 | 62 | 327 | 0.0 | 5.0 | 0.01 | 0.01 | 0.01 | 85 | 1008.0 |
| 20260509003624 | 62 | 322 | 1.0 | 3.0 | 0.01 | 0.01 | 0.01 | 83 | 1008.0 |
| 20260509002704 | 64 | 320 | 1.0 | 5.0 | 0.01 | 0.01 | 0.01 | 78 | 1008.3 |
| 20260509001803 | 65 | 326 | 0.0 | 4.0 | 0.00 | 0.00 | 0.00 | 73 | 1008.4 |
| 20260509000924 | 67 | 321 | 0.0 | 5.0 | 0.00 | 0.00 | 0.00 | 69 | 1008.2 |
| 20260509000004 | 67 | 326 | 1.0 | 4.0 | 0.00 | 0.00 | 0.00 | 67 | 1007.9 |
| 20260508235403 | 68 | 330 | 0.0 | 3.0 | 0.00 | 0.00 | 0.00 | 66 | 1007.9 |
| 20260508234503 | 68 | 328 | 0.0 | 5.0 | 0.00 | 0.00 | 0.00 | 65 | 1008.0 |
| 20260508233603 | 68 | 325 | 1.0 | 4.0 | 0.00 | 0.00 | 0.00 | 63 | 1007.8 |
| 20260508232703 | 69 | 322 | 1.0 | 4.0 | 0.00 | 0.00 | 0.00 | 63 | 1007.9 |
| 20260508231803 | 70 | 328 | 1.0 | 3.0 | 0.00 | 0.00 | 0.00 | 62 | 1008.1 |
| 20260508230903 | 70 | 326 | 0.0 | 5.0 | 0.00 | 0.00 | 0.00 | 61 | 1007.9 |
| 20260508230003 | 70 | 329 | 0.0 | 3.0 | 0.00 | 0.00 | 0.00 | 60 | 1008.0 |
| 20260508225403 | 71 | 326 | 0.0 | 2.0 | 0.00 | 0.00 | 0.00 | 59 | 1008.0 |
| 20260508224503 | 71 | 329 | 1.0 | 4.0 | 0.00 | 0.00 | 0.00 | 59 | 1008.0 |
| 20260508223603 | 72 | 324 | 1.0 | 4.0 | 0.00 | 0.00 | 0.00 | 56 | 1007.8 |
| 20260508222703 | 72 | 328 | 2.0 | 6.0 | 0.00 | 0.00 | 0.00 | 53 | 1007.9 |
| 20260508221803 | 72 | 328 | 1.0 | 8.0 | 0.00 | 0.00 | 0.00 | 54 | 1007.9 |
| 20260508220903 | 73 | 322 | 2.0 | 7.0 | 0.00 | 0.00 | 0.00 | 53 | 1008.0 |
| 20260508220003 | 73 | 327 | 2.0 | 9.0 | 0.00 | 0.00 | 0.00 | 51 | 1008.0 |
| 20260508215403 | 73 | 327 | 1.0 | 9.0 | 0.00 | 0.00 | 0.00 | 50 | 1008.1 |
| 20260508214503 | 73 | 327 | 1.0 | 6.0 | 0.00 | 0.00 | 0.00 | 51 | 1008.1 |
| 20260508213603 | 74 | 332 | 2.0 | 9.0 | 0.00 | 0.00 | 0.00 | 50 | 1008.2 |
| 20260508212703 | 74 | 332 | 2.0 | 8.0 | 0.00 | 0.00 | 0.00 | 50 | 1008.4 |
| 20260508211824 | 74 | 341 | 2.0 | 9.0 | 0.00 | 0.00 | 0.00 | 50 | 1008.5 |
| 20260508210903 | 74 | 336 | 2.0 | 9.0 | 0.00 | 0.00 | 0.00 | 50 | 1008.7 |
| 20260508210003 | 73 | 339 | 1.0 | 8.0 | 0.00 | 0.00 | 0.00 | 51 | 1008.7 |
| 20260508205403 | 74 | 331 | 2.0 | 10.0 | 0.00 | 0.00 | 0.00 | 50 | 1008.8 |
| 20260508204503 | 74 | 339 | 2.0 | 11.0 | 0.00 | 0.00 | 0.00 | 50 | 1009.0 |
| 20260508203603 | 74 | 337 | 1.0 | 5.0 | 0.00 | 0.00 | 0.00 | 52 | 1009.0 |
| 20260508202703 | 74 | 137 | 1.0 | 6.0 | 0.00 | 0.00 | 0.00 | 52 | 1009.1 |
| 20260508201803 | 74 | 244 | 0.0 | 4.0 | 0.00 | 0.00 | 0.00 | 52 | 1009.1 |
| 20260508200903 | 74 | 156 | 0.0 | 4.0 | 0.00 | 0.00 | 0.00 | 54 | 1009.2 |
| 20260508200003 | 75 | 145 | 1.0 | 6.0 | 0.00 | 0.00 | 0.00 | 52 | 1009.3 |
| 20260508195403 | 75 | 139 | 1.0 | 5.0 | 0.00 | 0.00 | 0.00 | 54 | 1009.3 |
| 20260508194503 | 74 | 159 | 1.0 | 6.0 | 0.00 | 0.00 | 0.00 | 55 | 1009.3 |
| 20260508193603 | 73 | 323 | 1.0 | 10.0 | 0.00 | 0.00 | 0.00 | 57 | 1009.4 |
| 20260508192703 | 72 | 329 | 1.0 | 9.0 | 0.00 | 0.00 | 0.00 | 53 | 1009.5 |
| 20260508191803 | 72 | 331 | 1.0 | 4.0 | 0.00 | 0.00 | 0.00 | 56 | 1009.6 |
| 20260508190903 | 71 | 335 | 1.0 | 4.0 | 0.00 | 0.00 | 0.00 | 58 | 1009.6 |
| 20260508190003 | 70 | 230 | 0.0 | 2.0 | 0.00 | 0.00 | 0.00 | 60 | 1009.5 |
| 20260508185424 | 69 | 251 | 0.0 | 2.0 | 0.00 | 0.00 | 0.00 | 63 | 1009.6 |
| 20260508184503 | 68 | 141 | 0.0 | 1.0 | 0.00 | 0.00 | 0.00 | 61 | 1009.8 |
| 20260508183624 | 68 | 307 | 0.0 | 3.0 | 0.00 | 0.00 | 0.00 | 61 | 1009.8 |
| 20260508182703 | 68 | 143 | 0.0 | 3.0 | 0.00 | 0.00 | 0.00 | 61 | 1009.9 |
| 20260508181803 | 68 | 158 | 0.0 | 4.0 | 0.00 | 0.00 | 0.00 | 61 | 1009.8 |
| 20260508180903 | 68 | 156 | 0.0 | 3.0 | 0.00 | 0.00 | 0.00 | 58 | 1010.1 |
| 20260508180003 | 68 | 187 | 0.0 | 4.0 | 0.00 | 0.00 | 0.00 | 58 | 1010.3 |
| 20260508175403 | 67 | 321 | 0.0 | 3.0 | 0.00 | 0.00 | 0.00 | 63 | 1010.4 |
| 20260508174503 | 67 | 312 | 0.0 | 4.0 | 0.00 | 0.00 | 0.00 | 59 | 1010.6 |
| 20260508173624 | 67 | 176 | 0.0 | 3.0 | 0.00 | 0.00 | 0.00 | 59 | 1010.6 |
| 20260508172703 | 66 | 23 | 1.0 | 5.0 | 0.00 | 0.00 | 0.00 | 62 | 1010.7 |
| 20260508171824 | 66 | 337 | 0.0 | 4.0 | 0.00 | 0.00 | 0.00 | 65 | 1010.9 |
| 20260508170903 | 66 | 263 | 0.0 | 3.0 | 0.00 | 0.00 | 0.00 | 61 | 1011.3 |
| 20260508170003 | 65 | 276 | 1.0 | 5.0 | 0.00 | 0.00 | 0.00 | 62 | 1011.5 |
| 20260508165424 | 65 | 165 | 1.0 | 5.0 | 0.00 | 0.00 | 0.00 | 62 | 1011.2 |
| 20260508164503 | 64 | 142 | 1.0 | 4.0 | 0.00 | 0.00 | 0.00 | 64 | 1011.3 |
| 20260508163603 | 64 | 152 | 0.0 | 3.0 | 0.00 | 0.00 | 0.00 | 63 | 1011.5 |
| 20260508162724 | 63 | 354 | 0.0 | 1.0 | 0.00 | 0.00 | 0.00 | 66 | 1011.9 |
| 20260508161824 | 63 | 267 | 0.0 | 3.0 | 0.00 | 0.00 | 0.00 | 66 | 1012.0 |
| 20260508160924 | 62 | 183 | 0.0 | 3.0 | 0.00 | 0.00 | 0.00 | 65 | 1012.0 |
| 20260508160003 | 62 | 140 | 1.0 | 4.0 | 0.00 | 0.00 | 0.00 | 65 | 1011.9 |
| 20260508155403 | 62 | 138 | 1.0 | 3.0 | 0.00 | 0.00 | 0.00 | 65 | 1011.8 |
| 20260508154524 | 62 | 144 | 1.0 | 6.0 | 0.00 | 0.00 | 0.00 | 65 | 1011.9 |
| 20260508153624 | 62 | 152 | 1.0 | 5.0 | 0.00 | 0.00 | 0.00 | 65 | 1012.1 |
| 20260508152703 | 62 | 143 | 2.0 | 7.0 | 0.00 | 0.00 | 0.00 | 65 | 1012.0 |
| 20260508151803 | 62 | 141 | 1.0 | 9.0 | 0.00 | 0.00 | 0.00 | 64 | 1012.0 |
| 20260508150903 | 62 | 139 | 1.0 | 5.0 | 0.00 | 0.00 | 0.00 | 64 | 1012.0 |
| 20260508150004 | 62 | 141 | 1.0 | 4.0 | 0.00 | 0.00 | 0.00 | 64 | 1012.2 |
| 20260508145403 | 62 | 146 | 1.0 | 8.0 | 0.00 | 0.00 | 0.00 | 63 | 1012.2 |
| 20260508144524 | 63 | 149 | 2.0 | 8.0 | 0.00 | 0.00 | 0.00 | 62 | 1012.5 |
| 20260508143624 | 63 | 165 | 1.0 | 8.0 | 0.00 | 0.00 | 0.00 | 61 | 1012.7 |
| 20260508142703 | 63 | 357 | 1.0 | 8.0 | 0.00 | 0.00 | 0.00 | 62 | 1012.9 |
| 20260508141803 | 63 | 302 | 1.0 | 8.0 | 0.00 | 0.00 | 0.00 | 62 | 1013.0 |
| 20260508140903 | 63 | 143 | 0.0 | 6.0 | 0.00 | 0.00 | 0.00 | 65 | 1012.9 |
| 20260508140003 | 62 | 161 | 0.0 | 3.0 | 0.00 | 0.00 | 0.00 | 66 | 1012.6 |
| 20260508135403 | 61 | 169 | 0.0 | 4.0 | 0.00 | 0.00 | 0.00 | 66 | 1012.7 |
| 20260508134524 | 61 | 155 | 0.0 | 5.0 | 0.00 | 0.00 | 0.00 | 67 | 1012.6 |
| 20260508133603 | 60 | 149 | 0.0 | 4.0 | 0.00 | 0.00 | 0.00 | 68 | 1012.5 |
| 20260508132703 | 59 | 184 | 0.0 | 2.0 | 0.00 | 0.00 | 0.00 | 69 | 1012.5 |
| 20260508131803 | 58 | 136 | 0.0 | 4.0 | 0.00 | 0.00 | 0.00 | 71 | 1012.5 |
| 20260508130903 | 57 | 144 | 0.0 | 2.0 | 0.00 | 0.00 | 0.00 | 73 | 1012.4 |
| 20260508130003 | 56 | 133 | 0.0 | 3.0 | 0.00 | 0.00 | 0.00 | 75 | 1012.5 |
| 20260508125403 | 55 | 133 | 0.0 | 3.0 | 0.00 | 0.00 | 0.00 | 76 | 1012.5 |
| 20260508124503 | 54 | 127 | 0.0 | 1.0 | 0.00 | 0.00 | 0.00 | 75 | 1012.5 |
| 20260508123603 | 54 | 126 | 0.0 | 1.0 | 0.00 | 0.00 | 0.00 | 75 | 1012.6 |
| 20260508122703 | 54 | 125 | 0.0 | 1.0 | 0.00 | 0.00 | 0.00 | 75 | 1012.5 |
| 20260508121803 | 54 | 136 | 0.0 | 1.0 | 0.00 | 0.00 | 0.00 | 75 | 1012.5 |
| 20260508120903 | 53 | 117 | 0.0 | 2.0 | 0.00 | 0.00 | 0.00 | 75 | 1012.5 |
| 20260508120024 | 53 | 142 | 0.0 | 5.0 | 0.00 | 0.00 | 0.00 | 76 | 1012.5 |
| 20260508115403 | 52 | 129 | 0.0 | 3.0 | 0.00 | 0.00 | 0.00 | 76 | 1012.4 |
| 20260508114503 | 52 | 125 | 0.0 | 3.0 | 0.00 | 0.00 | 0.00 | 76 | 1012.4 |
| 20260508113603 | 51 | 145 | 0.0 | 1.0 | 0.00 | 0.00 | 0.00 | 76 | 1012.3 |
| 20260508112724 | 51 | 138 | 0.0 | 1.0 | 0.00 | 0.00 | 0.00 | 76 | 1012.3 |
| 20260508111824 | 51 | 140 | 0.0 | 1.0 | 0.00 | 0.00 | 0.00 | 76 | 1012.3 |
| 20260508110903 | 51 | 0 | 0.0 | 0.0 | 0.00 | 0.00 | 0.00 | 76 | 1012.2 |
| 20260508110003 | 51 | 0 | 0.0 | 0.0 | 0.00 | 0.00 | 0.00 | 75 | 1012.2 |
| 20260508105403 | 51 | 123 | 0.0 | 1.0 | 0.00 | 0.00 | 0.00 | 75 | 1012.2 |
| 20260508104503 | 51 | 131 | 0.0 | 1.0 | 0.00 | 0.00 | 0.00 | 75 | 1012.2 |
| 20260508103603 | 51 | 128 | 0.0 | 1.0 | 0.00 | 0.00 | 0.00 | 75 | 1012.2 |
| 20260508102703 | 51 | 0 | 0.0 | 1.0 | 0.00 | 0.00 | 0.00 | 75 | 1012.2 |
| 20260508101803 | 51 | 131 | 0.0 | 1.0 | 0.00 | 0.00 | 0.00 | 75 | 1012.2 |
| 20260508100903 | 51 | 131 | 0.0 | 1.0 | 0.00 | 0.00 | 0.00 | 75 | 1012.3 |
| 20260508100003 | 51 | 0 | 0.0 | 0.0 | 0.00 | 0.00 | 0.00 | 75 | 1012.3 |
| 20260508095403 | 51 | 139 | 0.0 | 1.0 | 0.00 | 0.00 | 0.00 | 75 | 1012.3 |
| 20260508094503 | 51 | 141 | 0.0 | 1.0 | 0.00 | 0.00 | 0.00 | 76 | 1012.3 |
| 20260508093603 | 51 | 0 | 0.0 | 0.0 | 0.00 | 0.00 | 0.00 | 75 | 1012.4 |
| 20260508092724 | 51 | 144 | 0.0 | 1.0 | 0.00 | 0.00 | 0.00 | 75 | 1012.5 |
| 20260508091803 | 51 | 0 | 0.0 | 0.0 | 0.00 | 0.00 | 0.00 | 75 | 1012.6 |
| 20260508090924 | 51 | 122 | 0.0 | 1.0 | 0.00 | 0.00 | 0.00 | 75 | 1012.5 |
| 20260508090003 | 51 | 123 | 0.0 | 1.0 | 0.00 | 0.00 | 0.00 | 75 | 1012.5 |
| 20260508085403 | 51 | 123 | 0.0 | 1.0 | 0.00 | 0.00 | 0.00 | 75 | 1012.4 |
| 20260508084503 | 51 | 0 | 0.0 | 0.0 | 0.00 | 0.00 | 0.00 | 74 | 1012.4 |
| 20260508083603 | 51 | 0 | 0.0 | 0.0 | 0.00 | 0.00 | 0.00 | 74 | 1012.4 |
| 20260508082703 | 51 | 0 | 0.0 | 0.0 | 0.00 | 0.00 | 0.00 | 74 | 1012.5 |
| 20260508081824 | 52 | 138 | 0.0 | 1.0 | 0.00 | 0.00 | 0.00 | 73 | 1012.5 |
| 20260508080903 | 52 | 0 | 0.0 | 1.0 | 0.00 | 0.00 | 0.00 | 73 | 1012.5 |
| 20260508080024 | 52 | 0 | 0.0 | 0.0 | 0.00 | 0.00 | 0.00 | 73 | 1012.5 |
| 20260508075404 | 52 | 0 | 0.0 | 0.0 | 0.00 | 0.00 | 0.00 | 73 | 1012.6 |
| 20260508074504 | 52 | 120 | 0.0 | 1.0 | 0.00 | 0.00 | 0.00 | 72 | 1012.6 |
| 20260508073603 | 52 | 119 | 0.0 | 1.0 | 0.00 | 0.00 | 0.00 | 72 | 1012.7 |
| 20260508072703 | 52 | 129 | 0.0 | 1.0 | 0.00 | 0.00 | 0.00 | 71 | 1012.7 |
| 20260508071803 | 53 | 133 | 0.0 | 1.0 | 0.00 | 0.00 | 0.00 | 71 | 1012.8 |
| 20260508070903 | 53 | 118 | 0.0 | 1.0 | 0.00 | 0.00 | 0.00 | 71 | 1012.8 |
| 20260508070024 | 53 | 136 | 0.0 | 1.0 | 0.00 | 0.00 | 0.00 | 70 | 1012.9 |
| 20260508065403 | 53 | 127 | 0.0 | 1.0 | 0.00 | 0.00 | 0.00 | 70 | 1013.0 |
| 20260508064503 | 53 | 136 | 0.0 | 1.0 | 0.00 | 0.00 | 0.00 | 69 | 1013.0 |
| 20260508063603 | 54 | 133 | 0.0 | 1.0 | 0.00 | 0.00 | 0.00 | 69 | 1013.2 |
| 20260508062724 | 54 | 135 | 0.0 | 1.0 | 0.00 | 0.00 | 0.00 | 68 | 1013.3 |
| 20260508061803 | 54 | 135 | 0.0 | 1.0 | 0.00 | 0.00 | 0.00 | 68 | 1013.5 |
| 20260508060903 | 54 | 132 | 0.0 | 1.0 | 0.00 | 0.00 | 0.00 | 67 | 1013.5 |
| 20260508060003 | 54 | 132 | 0.0 | 1.0 | 0.00 | 0.00 | 0.00 | 67 | 1013.5 |
| 20260508055403 | 54 | 131 | 0.0 | 1.0 | 0.00 | 0.00 | 0.00 | 67 | 1013.6 |
| 20260508054503 | 54 | 131 | 0.0 | 1.0 | 0.00 | 0.00 | 0.00 | 67 | 1013.5 |
| 20260508053603 | 54 | 0 | 0.0 | 0.0 | 0.00 | 0.00 | 0.00 | 67 | 1013.6 |
| 20260508052703 | 54 | 132 | 0.0 | 1.0 | 0.00 | 0.00 | 0.00 | 67 | 1013.6 |
| 20260508051803 | 54 | 132 | 0.0 | 1.0 | 0.00 | 0.00 | 0.00 | 67 | 1013.5 |
| 20260508050903 | 54 | 132 | 0.0 | 1.0 | 0.00 | 0.00 | 0.00 | 66 | 1013.5 |
| 20260508050004 | 55 | 133 | 0.0 | 1.0 | 0.00 | 0.00 | 0.00 | 66 | 1013.5 |
| 20260508045403 | 55 | 133 | 0.0 | 1.0 | 0.00 | 0.00 | 0.00 | 66 | 1013.6 |
| 20260508044503 | 55 | 0 | 0.0 | 0.0 | 0.00 | 0.00 | 0.00 | 66 | 1013.6 |
| 20260508043603 | 55 | 132 | 0.0 | 1.0 | 0.00 | 0.00 | 0.00 | 66 | 1013.6 |
| 20260508042724 | 56 | 132 | 0.0 | 1.0 | 0.00 | 0.00 | 0.00 | 64 | 1013.6 |
| 20260508041803 | 56 | 125 | 0.0 | 1.0 | 0.00 | 0.00 | 0.00 | 63 | 1013.6 |
| 20260508040903 | 56 | 127 | 0.0 | 1.0 | 0.00 | 0.00 | 0.00 | 62 | 1013.6 |
| 20260508040003 | 57 | 139 | 0.0 | 1.0 | 0.00 | 0.00 | 0.00 | 61 | 1013.6 |
| 20260508035403 | 57 | 139 | 0.0 | 1.0 | 0.00 | 0.00 | 0.00 | 61 | 1013.6 |
| 20260508034524 | 57 | 138 | 0.0 | 1.0 | 0.00 | 0.00 | 0.00 | 60 | 1013.5 |
| 20260508033624 | 57 | 131 | 0.0 | 1.0 | 0.00 | 0.00 | 0.00 | 59 | 1013.6 |
| 20260508032703 | 57 | 134 | 0.0 | 1.0 | 0.00 | 0.00 | 0.00 | 60 | 1013.6 |